Flight Track Log - Related Links

Times and Time Zones

All times are in EDT time to prevent confusion due to time zone crossing. See the DAL3974 flight status page for this flight to view local times or setup timezone preferences in your user account.

Time Position Orientation Groundspeed Altitude Reporting Facility
EDT Latitude Longitude Course Direction KTS MPH feet Rate Location/Type
Tue 19:57:27 42.2036 -83.3556 78° East 153 176 1,300  Level Cleveland Center
Tue 19:57:44 42.1950 -83.3519 163° South 155 178 2,100 2,053 Climbing FAA TRACON SMA TRACON (SMA)
Tue 19:58:05 42.1781 -83.3483 171° South 179 206 2,600 2,154 Climbing FAA TRACON SMA TRACON (SMA)
Tue 19:58:23 42.1625 -83.3447 170° South 187 215 3,500 2,923 Climbing FAA TRACON SMA TRACON (SMA)
Tue 19:58:44 42.1478 -83.3414 170° South 187 215 4,500 2,341 Climbing FAA TRACON SMA TRACON (SMA)
Tue 19:59:04 42.1283 -83.3369 170° South 202 232 5,100 1,650 Climbing FAA TRACON SMA TRACON (SMA)
Tue 19:59:24 42.1097 -83.3231 151° Southeast 261 300 5,600 2,400 Climbing FAA TRACON SMA TRACON (SMA)
Tue 19:59:44 42.0983 -83.2856 112° Southeast 292 336 6,700 2,927 Climbing FAA TRACON SMA TRACON (SMA)
Tue 20:00:00 42.2795 -82.9124 74° East  Level FlightAware Approximate
Tue 20:00:05 42.0919 -83.2539 105° East 288 331 7,600  Level FAA TRACON SMA TRACON (SMA)
Tue 20:00:24 42.0850 -83.2186 105° East 291 335 8,700 2,850 Climbing FAA TRACON SMA TRACON (SMA)
Tue 20:00:45 42.0836 -83.1792 93° East 301 346 9,500 2,250 Climbing FAA TRACON SMA TRACON (SMA)
Tue 20:01:00 42.3080 -82.7651 78° East  Level FlightAware Approximate
Tue 20:01:04 42.0958 -83.1458 64° Northeast 311 358 10,200  Level FAA TRACON SMA TRACON (SMA)
Tue 20:01:24 42.1108 -83.1094 61° Northeast 336 387 10,800 1,692 Climbing FAA TRACON SMA TRACON (SMA)
Tue 20:01:43 42.1267 -83.0692 62° Northeast 343 395 11,300 1,500 Climbing FAA TRACON SMA TRACON (SMA)
Tue 20:02:00 42.3309 -82.6158 78° East  Level FlightAware Approximate
Tue 20:02:04 42.1411 -83.0331 62° Northeast 352 405 11,800  Level FAA TRACON SMA TRACON (SMA)
Tue 20:02:24 42.1558 -82.9958 62° Northeast 361 415 12,200 1,317 Climbing FAA TRACON SMA TRACON (SMA)
Tue 20:02:45 42.1744 -82.9486 62° Northeast 368 423 12,700 1,463 Climbing FAA TRACON SMA TRACON (SMA)
Tue 20:03:05 42.1897 -82.9100 62° Northeast 374 430 13,200 1,500 Climbing FAA TRACON SMA TRACON (SMA)
Tue 20:03:25 42.2092 -82.8606 62° Northeast 383 441 13,700 1,350 Climbing FAA TRACON SMA TRACON (SMA)
Tue 20:03:45 42.2247 -82.8206 62° Northeast 386 444 14,100 1,350 Climbing FAA TRACON SMA TRACON (SMA)
Tue 20:04:05 42.2408 -82.7803 62° Northeast 393 452 14,600 1,500 Climbing FAA TRACON SMA TRACON (SMA)
Tue 20:04:25 42.2603 -82.7294 63° Northeast 396 456 15,100 1,350 Climbing FAA TRACON SMA TRACON (SMA)
Tue 20:04:45 42.2761 -82.6886 62° Northeast 399 459 15,500 1,350 Climbing FAA TRACON SMA TRACON (SMA)
Tue 20:05:05 42.2922 -82.6475 62° Northeast 400 460 16,000 1,500 Climbing FAA TRACON SMA TRACON (SMA)
Tue 20:05:25 42.3122 -82.5961 62° Northeast 402 463 16,500 1,500 Climbing FAA TRACON SMA TRACON (SMA)
Tue 20:05:45 42.3281 -82.5547 63° Northeast 403 464 17,000 1,350 Climbing FAA TRACON SMA TRACON (SMA)
Tue 20:06:05 42.3444 -82.5136 62° Northeast 404 465 17,400 1,200 Climbing FAA TRACON SMA TRACON (SMA)
Tue 20:06:25 42.3622 -82.4600 66° East 411 473 17,800 1,231 Climbing FAA TRACON SMA TRACON (SMA)
Tue 20:06:44 42.3669 -82.4131 82° East 412 474 18,200 1,077 Climbing FAA TRACON SMA TRACON (SMA)
Tue 20:07:04 42.3661 -82.3656 91° East 412 474 18,500 1,050 Climbing FAA TRACON SMA TRACON (SMA)
Tue 20:07:24 42.3633 -82.3181 95° East 414 476 18,900 1,171 Climbing FAA TRACON SMA TRACON (SMA)
Tue 20:07:45 42.3603 -82.2578 94° East 416 479 19,300 1,171 Climbing FAA TRACON SMA TRACON (SMA)
Tue 20:08:05 42.3592 -82.2053 92° East 417 480 19,700 750 Climbing FAA TRACON SMA TRACON (SMA)
Tue 20:08:25 42.3586 -82.1931 94° East 418 481 19,800 150 Climbing FAA TRACON SMA TRACON (SMA)
Tue 20:08:45 42.3586 -82.1931 71° East 418 481 19,800 1,180 Level FAA TRACON SMA TRACON (SMA)
Tue 20:09:26 42.3475 -81.9878 94° East 419 482 21,000 713 Climbing Cleveland Center
Tue 20:10:26 42.3408 -81.8219 93° East 436 502 21,000  Level Cleveland Center
Tue 20:11:26 42.3303 -81.6447 95° East 462 532 21,000  Level Cleveland Center
Tue 20:12:26 42.3233 -81.4678 93° East 471 542 21,000  Level Cleveland Center
Tue 20:13:26 42.3161 -81.3075 93° East 478 550 21,000  Level Cleveland Center
Tue 20:14:26 42.3067 -81.1306 94° East 478 550 21,000  Level Cleveland Center
Tue 20:15:26 42.2992 -80.9567 93° East 478 550 21,000  Level Cleveland Center
Tue 20:16:26 42.2892 -80.7797 94° East 473 544 21,000  Level Cleveland Center
Tue 20:17:26 42.2808 -80.6056 94° East 473 544 21,000  Level Cleveland Center
Tue 20:18:26 42.2683 -80.4175 95° East 459 528 21,000  Level Cleveland Center
Tue 20:19:26 42.2597 -80.2494 94° East 459 528 21,000  Level Cleveland Center
Tue 20:20:26 42.2508 -80.0867 94° East 447 514 21,000  Level Cleveland Center
Tue 20:21:26 42.2394 -79.9381 96° East 441 507 21,000  Level Cleveland Center
Tue 20:22:26 42.2303 -79.7700 94° East 446 513 21,000  Level Cleveland Center
Tue 20:23:26 42.2183 -79.5936 95° East 452 520 21,000  Level Cleveland Center
Tue 20:24:26 42.2064 -79.4228 95° East 457 526 21,000  Level Cleveland Center
Tue 20:25:26 42.1961 -79.2575 95° East 457 526 21,000  Level Cleveland Center
Tue 20:26:26 42.1922 -79.0978 92° East 445 512 21,000  Level Cleveland Center
Tue 20:27:26 42.2131 -78.9347 80° East 439 505 21,000  Level Cleveland Center
Tue 20:28:26 42.2372 -78.7575 80° East 439 505 21,000  Level Cleveland Center
Tue 20:29:26 42.2578 -78.5997 80° East 428 493 21,000  Level Cleveland Center
Tue 20:30:26 42.2756 -78.4419 81° East 428 493 21,000  Level Cleveland Center
Tue 20:31:26 42.2956 -78.2786 81° East 428 493 21,000  Level Cleveland Center
Tue 20:32:26 42.3150 -78.1122 81° East 434 499 21,000  Level Cleveland Center
Tue 20:34:15 42.3475 -77.8158 81° East 447 514 21,000  Level New York Center
Tue 20:35:16 42.3675 -77.6550 80° East 441 507 21,000  Level New York Center
Tue 20:36:16 42.3850 -77.4939 82° East 441 507 21,000  Level New York Center
Tue 20:37:15 42.4042 -77.3358 81° East 441 507 21,000  Level New York Center
Tue 20:38:04 42.4183 -77.2278 80° East 440 506 21,000  Level Boston Center
Tue 20:39:04 42.4353 -77.0686 82° East 440 506 21,000  Level Boston Center
Tue 20:40:04 42.4519 -76.9122 82° East 429 494 21,000  Level Boston Center
Tue 20:41:04 42.4683 -76.7556 82° East 423 487 21,000  Level Boston Center
Tue 20:42:04 42.4847 -76.5989 82° East 423 487 21,000  Level Boston Center
Tue 20:43:04 42.5028 -76.4425 81° East 423 487 21,000  Level Boston Center
Tue 20:44:04 42.5186 -76.2856 82° East 423 487 21,000  Level Boston Center
Tue 20:45:04 42.5369 -76.1119 82° East 423 487 21,000  Level Boston Center
Tue 20:46:04 42.5525 -75.9522 82° East 423 487 21,000  Level Boston Center
Tue 20:47:04 42.5697 -75.7953 81° East 423 487 21,000  Level Boston Center
Tue 20:48:04 42.5847 -75.6325 83° East 423 487 21,000  Level Boston Center
Tue 20:49:04 42.5994 -75.4753 83° East 423 487 21,000  Level Boston Center
Tue 20:50:04 42.6164 -75.3122 82° East 423 487 21,000  Level Boston Center
Tue 20:51:04 42.6286 -75.1519 84° East 423 487 21,000  Level Boston Center
Tue 20:52:04 42.6425 -75.0031 83° East 431 496 21,000  Level Boston Center
Tue 20:53:04 42.6586 -74.8372 82° East 436 502 21,000  Level Boston Center
Tue 20:54:04 42.6722 -74.6739 83° East 436 502 21,000  Level Boston Center
Tue 20:55:04 42.6858 -74.5133 83° East 436 502 21,000  Level Boston Center
Tue 20:56:04 42.7011 -74.3500 83° East 441 507 21,000  Level Boston Center
Tue 20:57:04 42.7142 -74.1864 84° East 441 507 21,000  Level Boston Center
Tue 20:58:04 42.7269 -74.0228 84° East 441 507 21,000  Level Boston Center
Tue 20:59:04 42.7397 -73.8592 84° East 441 507 21,000  Level Boston Center
Tue 21:00:04 42.7542 -73.6786 84° East 441 507 21,000  Level Boston Center
Tue 21:01:04 42.7600 -73.5147 87° East 441 507 21,000 -150 Level Boston Center
Tue 21:02:04 42.7636 -73.3478 88° East 441 507 20,700 -850 Descending Boston Center
Tue 21:03:04 42.7711 -73.1894 86° East 434 499 19,300 -850 Descending Boston Center
Tue 21:04:04 42.7719 -73.0311 90° East 419 482 19,000 -200 Descending Boston Center
Tue 21:05:04 42.7789 -72.8900 86° East 413 475 18,900 -700 Descending Boston Center
Tue 21:06:04 42.7836 -72.7372 88° East 408 470 17,600 -1,600 Descending Boston Center
Tue 21:07:04 42.7881 -72.5814 88° East 408 470 15,700 -1,950 Descending Boston Center
Tue 21:08:04 42.7922 -72.4317 88° East 403 464 13,700 -2,000 Descending Boston Center
Tue 21:09:04 42.7983 -72.2758 87° East 393 452 11,700 -1,750 Descending Boston Center
Tue 21:10:04 42.8147 -72.1600 79° East 345 397 10,200 -1,350 Descending Boston Center
Tue 21:11:04 42.8311 -72.0608 77° East 279 321 9,000 -1,200 Descending Boston Center
Tue 21:12:04 42.8286 -71.9561 92° East 268 308 7,800 -1,750 Descending Boston Center
Tue 21:13:04 42.8219 -71.8597 95° East 268 308 5,500 -1,750 Descending Boston Center
Tue 21:14:04 42.8153 -71.7664 96° East 250 288 4,300 -750 Descending Boston Center
Tue 21:15:04 42.8086 -71.6986 98° East 203 234 4,000 -850 Descending Boston Center
Tue 21:16:04 42.8019 -71.6308 98° East 187 215 2,600 -1,000 Descending Boston Center
Tue 21:17:04 42.8264 -71.5767 58° Northeast 152 175 2,000 -250 Descending Boston Center
Tue 21:18:04 42.8575 -71.5367 43° Northeast 145 167 2,100 100 Climbing Boston Center

Login

Don't have an account? Register now (free) for customized features, flight alerts, and more!